sensor_id;sensor_type;location;lat;lon;timestamp;temperature;humidity
67529;DHT22;54366;51.980;5.856;2023-04-20T00:01:05;9.40;36.80
67529;DHT22;54366;51.980;5.856;2023-04-20T00:03:38;9.30;36.90
67529;DHT22;54366;51.980;5.856;2023-04-20T00:06:04;9.30;37.00
67529;DHT22;54366;51.980;5.856;2023-04-20T00:08:37;9.30;37.30
67529;DHT22;54366;51.980;5.856;2023-04-20T00:11:10;9.20;37.20
67529;DHT22;54366;51.980;5.856;2023-04-20T00:13:36;9.20;37.60
67529;DHT22;54366;51.980;5.856;2023-04-20T00:16:09;9.10;37.40
67529;DHT22;54366;51.980;5.856;2023-04-20T00:18:44;9.10;37.80
67529;DHT22;54366;51.980;5.856;2023-04-20T00:21:18;9.10;38.00
67529;DHT22;54366;51.980;5.856;2023-04-20T00:23:55;9.10;38.10
67529;DHT22;54366;51.980;5.856;2023-04-20T00:26:28;9.00;38.20
67529;DHT22;54366;51.980;5.856;2023-04-20T00:29:02;9.00;38.20
67529;DHT22;54366;51.980;5.856;2023-04-20T00:31:36;8.90;38.30
67529;DHT22;54366;51.980;5.856;2023-04-20T00:34:02;8.90;38.40
67529;DHT22;54366;51.980;5.856;2023-04-20T00:36:35;8.90;38.60
67529;DHT22;54366;51.980;5.856;2023-04-20T00:39:01;8.80;38.60
67529;DHT22;54366;51.980;5.856;2023-04-20T00:41:36;8.80;38.80
67529;DHT22;54366;51.980;5.856;2023-04-20T00:44:09;8.80;39.10
67529;DHT22;54366;51.980;5.856;2023-04-20T00:46:45;8.70;39.30
67529;DHT22;54366;51.980;5.856;2023-04-20T00:49:29;8.70;39.20
67529;DHT22;54366;51.980;5.856;2023-04-20T00:52:02;8.70;39.60
67529;DHT22;54366;51.980;5.856;2023-04-20T00:54:35;8.60;39.80
67529;DHT22;54366;51.980;5.856;2023-04-20T00:57:10;8.60;39.90
67529;DHT22;54366;51.980;5.856;2023-04-20T00:59:38;8.50;40.20
67529;DHT22;54366;51.980;5.856;2023-04-20T01:02:13;8.50;40.20
67529;DHT22;54366;51.980;5.856;2023-04-20T01:04:46;8.50;40.40
67529;DHT22;54366;51.980;5.856;2023-04-20T01:07:19;8.40;40.60
67529;DHT22;54366;51.980;5.856;2023-04-20T01:09:52;8.40;40.80
67529;DHT22;54366;51.980;5.856;2023-04-20T01:12:25;8.40;41.10
67529;DHT22;54366;51.980;5.856;2023-04-20T01:14:58;8.30;40.90
67529;DHT22;54366;51.980;5.856;2023-04-20T01:17:32;8.30;41.30
67529;DHT22;54366;51.980;5.856;2023-04-20T01:20:06;8.30;41.50
67529;DHT22;54366;51.980;5.856;2023-04-20T01:22:52;8.20;42.00
67529;DHT22;54366;51.980;5.856;2023-04-20T01:25:28;8.20;42.20
67529;DHT22;54366;51.980;5.856;2023-04-20T01:28:01;8.20;42.60
67529;DHT22;54366;51.980;5.856;2023-04-20T01:30:35;8.20;42.90
67529;DHT22;54366;51.980;5.856;2023-04-20T01:33:03;8.20;43.50
67529;DHT22;54366;51.980;5.856;2023-04-20T01:35:36;8.20;43.90
67529;DHT22;54366;51.980;5.856;2023-04-20T01:38:09;8.30;44.30
67529;DHT22;54366;51.980;5.856;2023-04-20T01:40:42;8.40;44.60
67529;DHT22;54366;51.980;5.856;2023-04-20T01:43:15;8.50;45.10
67529;DHT22;54366;51.980;5.856;2023-04-20T01:45:42;8.50;45.30
67529;DHT22;54366;51.980;5.856;2023-04-20T01:48:15;8.50;45.90
67529;DHT22;54366;51.980;5.856;2023-04-20T01:50:51;8.60;46.50
67529;DHT22;54366;51.980;5.856;2023-04-20T01:53:24;8.60;46.60
67529;DHT22;54366;51.980;5.856;2023-04-20T01:55:57;8.60;46.70
67529;DHT22;54366;51.980;5.856;2023-04-20T01:58:23;8.70;46.70
67529;DHT22;54366;51.980;5.856;2023-04-20T02:00:56;8.80;47.60
67529;DHT22;54366;51.980;5.856;2023-04-20T02:03:29;8.80;47.50
67529;DHT22;54366;51.980;5.856;2023-04-20T02:06:02;8.80;47.80
67529;DHT22;54366;51.980;5.856;2023-04-20T02:08:35;8.90;48.00
67529;DHT22;54366;51.980;5.856;2023-04-20T02:11:01;8.80;48.60
67529;DHT22;54366;51.980;5.856;2023-04-20T02:13:35;8.80;48.70
67529;DHT22;54366;51.980;5.856;2023-04-20T02:16:08;8.80;48.90
67529;DHT22;54366;51.980;5.856;2023-04-20T02:18:41;8.80;48.50
67529;DHT22;54366;51.980;5.856;2023-04-20T02:21:14;8.80;48.50
67529;DHT22;54366;51.980;5.856;2023-04-20T02:23:40;8.80;48.80
67529;DHT22;54366;51.980;5.856;2023-04-20T02:26:13;8.80;49.00
67529;DHT22;54366;51.980;5.856;2023-04-20T02:28:39;8.80;48.70
67529;DHT22;54366;51.980;5.856;2023-04-20T02:31:12;8.80;49.10
67529;DHT22;54366;51.980;5.856;2023-04-20T02:33:39;8.80;49.30
67529;DHT22;54366;51.980;5.856;2023-04-20T02:36:12;8.80;49.00
67529;DHT22;54366;51.980;5.856;2023-04-20T02:38:45;8.80;49.70
67529;DHT22;54366;51.980;5.856;2023-04-20T02:41:18;8.80;49.10
67529;DHT22;54366;51.980;5.856;2023-04-20T02:43:51;8.80;49.90
67529;DHT22;54366;51.980;5.856;2023-04-20T02:46:30;8.80;49.50
67529;DHT22;54366;51.980;5.856;2023-04-20T02:49:03;8.90;49.80
67529;DHT22;54366;51.980;5.856;2023-04-20T02:51:41;8.90;50.30
67529;DHT22;54366;51.980;5.856;2023-04-20T02:54:14;8.90;50.20
67529;DHT22;54366;51.980;5.856;2023-04-20T02:56:47;8.90;50.00
67529;DHT22;54366;51.980;5.856;2023-04-20T02:59:14;8.90;50.50
67529;DHT22;54366;51.980;5.856;2023-04-20T03:02:03;9.00;50.70
67529;DHT22;54366;51.980;5.856;2023-04-20T03:04:36;9.00;50.70
67529;DHT22;54366;51.980;5.856;2023-04-20T03:07:33;9.00;51.20
67529;DHT22;54366;51.980;5.856;2023-04-20T03:10:08;9.00;51.00
67529;DHT22;54366;51.980;5.856;2023-04-20T03:12:53;9.00;51.20
67529;DHT22;54366;51.980;5.856;2023-04-20T03:15:43;9.10;51.50
67529;DHT22;54366;51.980;5.856;2023-04-20T03:18:28;9.10;51.70
67529;DHT22;54366;51.980;5.856;2023-04-20T03:21:01;9.10;51.10
67529;DHT22;54366;51.980;5.856;2023-04-20T03:23:34;9.10;51.30
67529;DHT22;54366;51.980;5.856;2023-04-20T03:26:02;9.10;51.40
67529;DHT22;54366;51.980;5.856;2023-04-20T03:28:55;9.20;51.30
67529;DHT22;54366;51.980;5.856;2023-04-20T03:31:29;9.20;51.60
67529;DHT22;54366;51.980;5.856;2023-04-20T03:34:02;9.20;51.40
67529;DHT22;54366;51.980;5.856;2023-04-20T03:36:29;9.20;51.50
67529;DHT22;54366;51.980;5.856;2023-04-20T03:39:02;9.20;51.50
67529;DHT22;54366;51.980;5.856;2023-04-20T03:41:36;9.20;51.40
67529;DHT22;54366;51.980;5.856;2023-04-20T03:44:02;9.20;51.30
67529;DHT22;54366;51.980;5.856;2023-04-20T03:46:36;9.20;51.40
67529;DHT22;54366;51.980;5.856;2023-04-20T03:49:22;9.20;51.30
67529;DHT22;54366;51.980;5.856;2023-04-20T03:51:56;9.20;51.70
67529;DHT22;54366;51.980;5.856;2023-04-20T03:54:22;9.20;51.60
67529;DHT22;54366;51.980;5.856;2023-04-20T03:56:55;9.20;51.70
67529;DHT22;54366;51.980;5.856;2023-04-20T03:59:28;9.20;52.30
67529;DHT22;54366;51.980;5.856;2023-04-20T04:02:04;9.20;52.60
67529;DHT22;54366;51.980;5.856;2023-04-20T04:04:31;9.20;52.10
67529;DHT22;54366;51.980;5.856;2023-04-20T04:07:03;9.20;52.30
67529;DHT22;54366;51.980;5.856;2023-04-20T04:09:39;9.20;52.10
67529;DHT22;54366;51.980;5.856;2023-04-20T04:12:12;9.20;52.40
67529;DHT22;54366;51.980;5.856;2023-04-20T04:14:47;9.20;52.90
67529;DHT22;54366;51.980;5.856;2023-04-20T04:17:23;9.20;52.80
67529;DHT22;54366;51.980;5.856;2023-04-20T04:19:49;9.20;52.80
67529;DHT22;54366;51.980;5.856;2023-04-20T04:22:22;9.20;52.70
67529;DHT22;54366;51.980;5.856;2023-04-20T04:25:21;9.20;52.70
67529;DHT22;54366;51.980;5.856;2023-04-20T04:27:54;9.20;52.70
67529;DHT22;54366;51.980;5.856;2023-04-20T04:30:30;9.20;52.60
67529;DHT22;54366;51.980;5.856;2023-04-20T04:33:03;9.20;52.60
67529;DHT22;54366;51.980;5.856;2023-04-20T04:35:38;9.20;52.60
67529;DHT22;54366;51.980;5.856;2023-04-20T04:38:14;9.20;52.80
67529;DHT22;54366;51.980;5.856;2023-04-20T04:40:44;9.20;52.60
67529;DHT22;54366;51.980;5.856;2023-04-20T04:43:18;9.20;52.60
67529;DHT22;54366;51.980;5.856;2023-04-20T04:45:52;9.30;52.80
67529;DHT22;54366;51.980;5.856;2023-04-20T04:48:33;9.30;52.80
67529;DHT22;54366;51.980;5.856;2023-04-20T04:51:08;9.30;52.90
67529;DHT22;54366;51.980;5.856;2023-04-20T04:53:41;9.30;52.90
67529;DHT22;54366;51.980;5.856;2023-04-20T04:56:10;9.30;53.00
67529;DHT22;54366;51.980;5.856;2023-04-20T04:58:43;9.30;52.90
67529;DHT22;54366;51.980;5.856;2023-04-20T05:01:17;9.30;52.80
67529;DHT22;54366;51.980;5.856;2023-04-20T05:03:50;9.40;52.90
67529;DHT22;54366;51.980;5.856;2023-04-20T05:06:23;9.40;52.50
67529;DHT22;54366;51.980;5.856;2023-04-20T05:08:49;9.40;52.70
67529;DHT22;54366;51.980;5.856;2023-04-20T05:11:22;9.40;52.80
67529;DHT22;54366;51.980;5.856;2023-04-20T05:13:55;9.40;52.70
67529;DHT22;54366;51.980;5.856;2023-04-20T05:16:28;9.50;52.70
67529;DHT22;54366;51.980;5.856;2023-04-20T05:18:54;9.50;52.60
67529;DHT22;54366;51.980;5.856;2023-04-20T05:21:27;9.50;52.70
67529;DHT22;54366;51.980;5.856;2023-04-20T05:23:53;9.50;52.80
67529;DHT22;54366;51.980;5.856;2023-04-20T05:26:26;9.50;52.80
67529;DHT22;54366;51.980;5.856;2023-04-20T05:28:59;9.50;53.20
67529;DHT22;54366;51.980;5.856;2023-04-20T05:31:26;9.50;52.70
67529;DHT22;54366;51.980;5.856;2023-04-20T05:33:59;9.60;53.20
67529;DHT22;54366;51.980;5.856;2023-04-20T05:36:27;9.60;53.50
67529;DHT22;54366;51.980;5.856;2023-04-20T05:39:01;9.60;53.20
67529;DHT22;54366;51.980;5.856;2023-04-20T05:41:34;9.60;53.10
67529;DHT22;54366;51.980;5.856;2023-04-20T05:44:00;9.60;53.20
67529;DHT22;54366;51.980;5.856;2023-04-20T05:46:33;9.60;53.20
67529;DHT22;54366;51.980;5.856;2023-04-20T05:49:19;9.60;53.40
67529;DHT22;54366;51.980;5.856;2023-04-20T05:51:52;9.60;53.20
67529;DHT22;54366;51.980;5.856;2023-04-20T05:54:25;9.70;53.70
67529;DHT22;54366;51.980;5.856;2023-04-20T05:56:59;9.70;53.50
67529;DHT22;54366;51.980;5.856;2023-04-20T05:59:25;9.70;53.50
67529;DHT22;54366;51.980;5.856;2023-04-20T06:01:58;9.80;53.70
67529;DHT22;54366;51.980;5.856;2023-04-20T06:04:31;9.80;53.40
67529;DHT22;54366;51.980;5.856;2023-04-20T06:07:04;9.90;53.30
67529;DHT22;54366;51.980;5.856;2023-04-20T06:09:37;9.90;53.00
67529;DHT22;54366;51.980;5.856;2023-04-20T06:12:03;10.00;53.40
67529;DHT22;54366;51.980;5.856;2023-04-20T06:14:36;9.90;53.30
67529;DHT22;54366;51.980;5.856;2023-04-20T06:17:09;10.00;53.40
67529;DHT22;54366;51.980;5.856;2023-04-20T06:19:42;10.00;53.60
67529;DHT22;54366;51.980;5.856;2023-04-20T06:22:15;10.00;53.30
67529;DHT22;54366;51.980;5.856;2023-04-20T06:24:42;10.00;53.70
67529;DHT22;54366;51.980;5.856;2023-04-20T06:27:14;10.00;53.50
67529;DHT22;54366;51.980;5.856;2023-04-20T06:29:47;10.00;53.20
67529;DHT22;54366;51.980;5.856;2023-04-20T06:32:20;10.10;53.40
67529;DHT22;54366;51.980;5.856;2023-04-20T06:34:53;10.10;53.60
67529;DHT22;54366;51.980;5.856;2023-04-20T06:37:20;10.10;53.90
67529;DHT22;54366;51.980;5.856;2023-04-20T06:39:55;10.10;53.40
67529;DHT22;54366;51.980;5.856;2023-04-20T06:42:21;10.20;53.70
67529;DHT22;54366;51.980;5.856;2023-04-20T06:44:56;10.10;53.00
67529;DHT22;54366;51.980;5.856;2023-04-20T06:47:22;10.10;53.20
67529;DHT22;54366;51.980;5.856;2023-04-20T06:50:06;10.20;53.10
67529;DHT22;54366;51.980;5.856;2023-04-20T06:52:36;10.20;53.00
67529;DHT22;54366;51.980;5.856;2023-04-20T06:55:09;10.20;53.20
67529;DHT22;54366;51.980;5.856;2023-04-20T06:57:36;10.20;53.10
67529;DHT22;54366;51.980;5.856;2023-04-20T07:00:10;10.30;53.30
67529;DHT22;54366;51.980;5.856;2023-04-20T07:02:47;10.30;53.40
67529;DHT22;54366;51.980;5.856;2023-04-20T07:05:20;10.40;53.50
67529;DHT22;54366;51.980;5.856;2023-04-20T07:07:53;10.40;53.30
67529;DHT22;54366;51.980;5.856;2023-04-20T07:10:26;10.50;53.30
67529;DHT22;54366;51.980;5.856;2023-04-20T07:12:59;10.50;53.10
67529;DHT22;54366;51.980;5.856;2023-04-20T07:15:25;10.50;53.10
67529;DHT22;54366;51.980;5.856;2023-04-20T07:17:58;10.50;53.40
67529;DHT22;54366;51.980;5.856;2023-04-20T07:20:24;10.50;53.50
67529;DHT22;54366;51.980;5.856;2023-04-20T07:22:57;10.50;53.60
67529;DHT22;54366;51.980;5.856;2023-04-20T07:25:30;10.60;53.80
67529;DHT22;54366;51.980;5.856;2023-04-20T07:28:04;10.60;53.70
67529;DHT22;54366;51.980;5.856;2023-04-20T07:30:37;10.60;53.30
67529;DHT22;54366;51.980;5.856;2023-04-20T07:33:03;10.60;53.80
67529;DHT22;54366;51.980;5.856;2023-04-20T07:35:36;10.50;53.70
67529;DHT22;54366;51.980;5.856;2023-04-20T07:38:09;10.50;54.00
67529;DHT22;54366;51.980;5.856;2023-04-20T07:40:42;10.50;54.00
67529;DHT22;54366;51.980;5.856;2023-04-20T07:43:15;10.40;54.10
67529;DHT22;54366;51.980;5.856;2023-04-20T07:45:55;10.30;54.30
67529;DHT22;54366;51.980;5.856;2023-04-20T07:48:36;10.30;54.60
67529;DHT22;54366;51.980;5.856;2023-04-20T07:51:08;10.40;55.30
67529;DHT22;54366;51.980;5.856;2023-04-20T07:53:41;10.50;54.70
67529;DHT22;54366;51.980;5.856;2023-04-20T07:56:07;10.60;54.10
67529;DHT22;54366;51.980;5.856;2023-04-20T07:58:40;10.60;54.10
67529;DHT22;54366;51.980;5.856;2023-04-20T08:01:13;10.60;54.10
67529;DHT22;54366;51.980;5.856;2023-04-20T08:03:46;10.60;54.30
67529;DHT22;54366;51.980;5.856;2023-04-20T08:06:12;10.80;54.50
67529;DHT22;54366;51.980;5.856;2023-04-20T08:08:45;10.80;54.20
67529;DHT22;54366;51.980;5.856;2023-04-20T08:11:18;10.80;54.00
67529;DHT22;54366;51.980;5.856;2023-04-20T08:13:51;10.90;53.90
67529;DHT22;54366;51.980;5.856;2023-04-20T08:16:17;10.90;53.80
67529;DHT22;54366;51.980;5.856;2023-04-20T08:18:50;10.90;54.20
67529;DHT22;54366;51.980;5.856;2023-04-20T08:21:23;11.00;53.80
67529;DHT22;54366;51.980;5.856;2023-04-20T08:23:56;11.00;53.60
67529;DHT22;54366;51.980;5.856;2023-04-20T08:26:30;11.00;53.80
67529;DHT22;54366;51.980;5.856;2023-04-20T08:29:04;11.10;53.50
67529;DHT22;54366;51.980;5.856;2023-04-20T08:31:31;11.10;53.60
67529;DHT22;54366;51.980;5.856;2023-04-20T08:34:18;11.10;53.50
67529;DHT22;54366;51.980;5.856;2023-04-20T08:36:51;11.20;53.90
67529;DHT22;54366;51.980;5.856;2023-04-20T08:39:31;11.10;53.80
67529;DHT22;54366;51.980;5.856;2023-04-20T08:42:05;11.20;54.90
67529;DHT22;54366;51.980;5.856;2023-04-20T08:44:31;11.20;54.20
67529;DHT22;54366;51.980;5.856;2023-04-20T08:47:04;11.20;54.30
67529;DHT22;54366;51.980;5.856;2023-04-20T08:49:38;11.10;53.60
67529;DHT22;54366;51.980;5.856;2023-04-20T08:52:11;11.00;53.90
67529;DHT22;54366;51.980;5.856;2023-04-20T08:54:37;10.90;54.10
67529;DHT22;54366;51.980;5.856;2023-04-20T08:57:10;10.90;54.80
67529;DHT22;54366;51.980;5.856;2023-04-20T08:59:43;10.90;54.70
67529;DHT22;54366;51.980;5.856;2023-04-20T09:02:16;10.90;54.90
67529;DHT22;54366;51.980;5.856;2023-04-20T09:04:59;10.90;55.10
67529;DHT22;54366;51.980;5.856;2023-04-20T09:07:32;11.00;55.10
67529;DHT22;54366;51.980;5.856;2023-04-20T09:10:05;11.00;54.70
67529;DHT22;54366;51.980;5.856;2023-04-20T09:12:41;11.00;55.10
67529;DHT22;54366;51.980;5.856;2023-04-20T09:15:30;11.10;55.30
67529;DHT22;54366;51.980;5.856;2023-04-20T09:18:13;11.10;54.80
67529;DHT22;54366;51.980;5.856;2023-04-20T09:20:46;11.10;54.90
67529;DHT22;54366;51.980;5.856;2023-04-20T09:23:20;11.00;55.20
67529;DHT22;54366;51.980;5.856;2023-04-20T09:25:53;11.00;55.20
67529;DHT22;54366;51.980;5.856;2023-04-20T09:28:35;11.10;55.50
67529;DHT22;54366;51.980;5.856;2023-04-20T09:31:20;11.10;55.00
67529;DHT22;54366;51.980;5.856;2023-04-20T09:34:01;11.10;55.20
67529;DHT22;54366;51.980;5.856;2023-04-20T09:36:44;11.10;55.20
67529;DHT22;54366;51.980;5.856;2023-04-20T09:39:20;11.20;54.70
67529;DHT22;54366;51.980;5.856;2023-04-20T09:41:54;11.10;54.60
67529;DHT22;54366;51.980;5.856;2023-04-20T09:44:31;11.10;54.70
67529;DHT22;54366;51.980;5.856;2023-04-20T09:47:03;11.10;54.80
67529;DHT22;54366;51.980;5.856;2023-04-20T09:49:40;11.10;54.50
67529;DHT22;54366;51.980;5.856;2023-04-20T09:52:17;11.10;54.70
67529;DHT22;54366;51.980;5.856;2023-04-20T09:54:50;11.00;54.70
67529;DHT22;54366;51.980;5.856;2023-04-20T09:57:24;11.00;54.70
67529;DHT22;54366;51.980;5.856;2023-04-20T09:59:59;11.00;55.40
67529;DHT22;54366;51.980;5.856;2023-04-20T10:02:35;11.00;55.40
67529;DHT22;54366;51.980;5.856;2023-04-20T10:05:08;11.00;55.30
67529;DHT22;54366;51.980;5.856;2023-04-20T10:07:35;11.00;54.50
67529;DHT22;54366;51.980;5.856;2023-04-20T10:10:14;11.10;54.30
67529;DHT22;54366;51.980;5.856;2023-04-20T10:12:52;11.20;53.90
67529;DHT22;54366;51.980;5.856;2023-04-20T10:15:36;11.20;53.70
67529;DHT22;54366;51.980;5.856;2023-04-20T10:18:20;11.30;53.90
67529;DHT22;54366;51.980;5.856;2023-04-20T10:21:07;11.50;53.50
67529;DHT22;54366;51.980;5.856;2023-04-20T10:23:49;11.50;53.60
67529;DHT22;54366;51.980;5.856;2023-04-20T10:26:22;11.60;53.70
67529;DHT22;54366;51.980;5.856;2023-04-20T10:28:55;11.80;52.60
67529;DHT22;54366;51.980;5.856;2023-04-20T10:31:36;11.80;51.90
67529;DHT22;54366;51.980;5.856;2023-04-20T10:34:10;11.90;51.60
67529;DHT22;54366;51.980;5.856;2023-04-20T10:36:37;12.10;51.60
67529;DHT22;54366;51.980;5.856;2023-04-20T10:39:17;12.30;51.10
67529;DHT22;54366;51.980;5.856;2023-04-20T10:41:52;12.70;50.50
67529;DHT22;54366;51.980;5.856;2023-04-20T10:44:25;12.80;49.00
67529;DHT22;54366;51.980;5.856;2023-04-20T10:46:58;12.80;48.80
67529;DHT22;54366;51.980;5.856;2023-04-20T10:49:37;12.80;48.70
67529;DHT22;54366;51.980;5.856;2023-04-20T10:52:10;12.90;48.60
67529;DHT22;54366;51.980;5.856;2023-04-20T10:54:43;12.90;48.50
67529;DHT22;54366;51.980;5.856;2023-04-20T10:57:16;12.90;48.40
67529;DHT22;54366;51.980;5.856;2023-04-20T10:59:49;12.80;48.00
67529;DHT22;54366;51.980;5.856;2023-04-20T11:02:15;12.70;47.80
67529;DHT22;54366;51.980;5.856;2023-04-20T11:04:48;12.90;48.50
67529;DHT22;54366;51.980;5.856;2023-04-20T11:07:21;13.20;48.10
67529;DHT22;54366;51.980;5.856;2023-04-20T11:09:54;13.40;48.10
67529;DHT22;54366;51.980;5.856;2023-04-20T11:12:37;13.50;47.40
67529;DHT22;54366;51.980;5.856;2023-04-20T11:15:10;13.50;46.90
67529;DHT22;54366;51.980;5.856;2023-04-20T11:17:43;13.40;45.70
67529;DHT22;54366;51.980;5.856;2023-04-20T11:20:17;13.30;46.40
67529;DHT22;54366;51.980;5.856;2023-04-20T11:22:55;13.20;47.00
67529;DHT22;54366;51.980;5.856;2023-04-20T11:25:31;13.00;47.40
67529;DHT22;54366;51.980;5.856;2023-04-20T11:28:05;12.90;47.50
67529;DHT22;54366;51.980;5.856;2023-04-20T11:30:40;12.80;47.60
67529;DHT22;54366;51.980;5.856;2023-04-20T11:33:13;12.70;47.50
67529;DHT22;54366;51.980;5.856;2023-04-20T11:35:46;12.60;47.60
67529;DHT22;54366;51.980;5.856;2023-04-20T11:38:12;12.50;47.90
67529;DHT22;54366;51.980;5.856;2023-04-20T11:40:45;12.40;47.80
67529;DHT22;54366;51.980;5.856;2023-04-20T11:43:18;12.30;48.30
67529;DHT22;54366;51.980;5.856;2023-04-20T11:45:51;12.40;48.80
67529;DHT22;54366;51.980;5.856;2023-04-20T11:48:24;12.50;48.70
67529;DHT22;54366;51.980;5.856;2023-04-20T11:51:04;12.60;48.70
67529;DHT22;54366;51.980;5.856;2023-04-20T11:53:38;12.60;48.80
67529;DHT22;54366;51.980;5.856;2023-04-20T11:56:12;12.60;48.70
67529;DHT22;54366;51.980;5.856;2023-04-20T11:58:45;12.60;48.40
67529;DHT22;54366;51.980;5.856;2023-04-20T12:01:18;12.60;49.30
67529;DHT22;54366;51.980;5.856;2023-04-20T12:03:51;12.50;49.10
67529;DHT22;54366;51.980;5.856;2023-04-20T12:06:24;12.60;49.20
67529;DHT22;54366;51.980;5.856;2023-04-20T12:08:59;12.50;49.20
67529;DHT22;54366;51.980;5.856;2023-04-20T12:11:25;12.40;49.00
67529;DHT22;54366;51.980;5.856;2023-04-20T12:13:58;12.40;49.40
67529;DHT22;54366;51.980;5.856;2023-04-20T12:16:31;12.20;49.70
67529;DHT22;54366;51.980;5.856;2023-04-20T12:19:04;12.30;50.10
67529;DHT22;54366;51.980;5.856;2023-04-20T12:21:37;12.30;50.40
67529;DHT22;54366;51.980;5.856;2023-04-20T12:24:10;12.40;50.10
67529;DHT22;54366;51.980;5.856;2023-04-20T12:26:43;12.40;49.50
67529;DHT22;54366;51.980;5.856;2023-04-20T12:29:16;12.30;49.30
67529;DHT22;54366;51.980;5.856;2023-04-20T12:31:49;12.30;49.20
67529;DHT22;54366;51.980;5.856;2023-04-20T12:34:22;12.20;49.60
67529;DHT22;54366;51.980;5.856;2023-04-20T12:36:55;12.10;49.50
67529;DHT22;54366;51.980;5.856;2023-04-20T12:39:28;12.10;49.50
67529;DHT22;54366;51.980;5.856;2023-04-20T12:42:01;12.10;49.90
67529;DHT22;54366;51.980;5.856;2023-04-20T12:44:28;12.10;50.00
67529;DHT22;54366;51.980;5.856;2023-04-20T12:47:07;12.20;50.10
67529;DHT22;54366;51.980;5.856;2023-04-20T12:49:47;12.20;50.10
67529;DHT22;54366;51.980;5.856;2023-04-20T12:52:20;12.20;50.30
67529;DHT22;54366;51.980;5.856;2023-04-20T12:54:46;12.20;50.60
67529;DHT22;54366;51.980;5.856;2023-04-20T12:57:19;12.40;50.40
67529;DHT22;54366;51.980;5.856;2023-04-20T12:59:46;12.50;50.60
67529;DHT22;54366;51.980;5.856;2023-04-20T13:02:22;12.60;50.00
67529;DHT22;54366;51.980;5.856;2023-04-20T13:04:48;12.60;49.80
67529;DHT22;54366;51.980;5.856;2023-04-20T13:07:23;12.60;49.60
67529;DHT22;54366;51.980;5.856;2023-04-20T13:09:56;12.60;49.00
67529;DHT22;54366;51.980;5.856;2023-04-20T13:12:23;12.60;48.90
67529;DHT22;54366;51.980;5.856;2023-04-20T13:14:56;12.50;49.30
67529;DHT22;54366;51.980;5.856;2023-04-20T13:17:29;12.50;49.80
67529;DHT22;54366;51.980;5.856;2023-04-20T13:20:02;12.60;49.80
67529;DHT22;54366;51.980;5.856;2023-04-20T13:22:37;12.60;50.00
67529;DHT22;54366;51.980;5.856;2023-04-20T13:25:10;12.60;49.10
67529;DHT22;54366;51.980;5.856;2023-04-20T13:27:43;12.70;49.10
67529;DHT22;54366;51.980;5.856;2023-04-20T13:30:16;12.70;48.60
67529;DHT22;54366;51.980;5.856;2023-04-20T13:32:49;12.80;48.80
67529;DHT22;54366;51.980;5.856;2023-04-20T13:35:23;12.80;49.20
67529;DHT22;54366;51.980;5.856;2023-04-20T13:37:55;12.80;48.80
67529;DHT22;54366;51.980;5.856;2023-04-20T13:40:28;12.80;48.40
67529;DHT22;54366;51.980;5.856;2023-04-20T13:43:01;12.80;48.80
67529;DHT22;54366;51.980;5.856;2023-04-20T13:45:34;12.80;49.10
67529;DHT22;54366;51.980;5.856;2023-04-20T13:48:07;12.80;49.50
67529;DHT22;54366;51.980;5.856;2023-04-20T13:50:47;12.90;49.20
67529;DHT22;54366;51.980;5.856;2023-04-20T13:53:13;12.90;49.10
67529;DHT22;54366;51.980;5.856;2023-04-20T13:55:47;12.90;49.00
67529;DHT22;54366;51.980;5.856;2023-04-20T13:58:13;13.00;49.30
67529;DHT22;54366;51.980;5.856;2023-04-20T14:00:46;13.10;49.60
67529;DHT22;54366;51.980;5.856;2023-04-20T14:03:19;13.20;49.00
67529;DHT22;54366;51.980;5.856;2023-04-20T14:05:52;13.20;48.10
67529;DHT22;54366;51.980;5.856;2023-04-20T14:08:18;13.40;49.10
67529;DHT22;54366;51.980;5.856;2023-04-20T14:10:52;13.50;48.90
67529;DHT22;54366;51.980;5.856;2023-04-20T14:13:25;13.50;48.00
67529;DHT22;54366;51.980;5.856;2023-04-20T14:15:55;13.50;48.00
67529;DHT22;54366;51.980;5.856;2023-04-20T14:18:28;13.50;48.10
67529;DHT22;54366;51.980;5.856;2023-04-20T14:21:03;13.50;47.20
67529;DHT22;54366;51.980;5.856;2023-04-20T14:23:36;13.40;47.60
67529;DHT22;54366;51.980;5.856;2023-04-20T14:26:09;13.30;48.20
67529;DHT22;54366;51.980;5.856;2023-04-20T14:28:36;13.30;47.50
67529;DHT22;54366;51.980;5.856;2023-04-20T14:31:08;13.40;47.90
67529;DHT22;54366;51.980;5.856;2023-04-20T14:33:41;13.50;47.90
67529;DHT22;54366;51.980;5.856;2023-04-20T14:36:16;13.50;47.70
67529;DHT22;54366;51.980;5.856;2023-04-20T14:38:43;13.60;47.60
67529;DHT22;54366;51.980;5.856;2023-04-20T14:41:16;13.70;47.10
67529;DHT22;54366;51.980;5.856;2023-04-20T14:43:42;13.70;46.90
67529;DHT22;54366;51.980;5.856;2023-04-20T14:46:15;13.60;46.00
67529;DHT22;54366;51.980;5.856;2023-04-20T14:48:54;13.50;47.30
67529;DHT22;54366;51.980;5.856;2023-04-20T14:51:27;13.40;47.40
67529;DHT22;54366;51.980;5.856;2023-04-20T14:53:53;13.40;47.70
67529;DHT22;54366;51.980;5.856;2023-04-20T14:56:26;13.40;47.20
67529;DHT22;54366;51.980;5.856;2023-04-20T14:58:59;13.30;47.20
67529;DHT22;54366;51.980;5.856;2023-04-20T15:01:26;13.40;47.60
67529;DHT22;54366;51.980;5.856;2023-04-20T15:03:59;13.40;47.70
67529;DHT22;54366;51.980;5.856;2023-04-20T15:06:26;13.60;47.80
67529;DHT22;54366;51.980;5.856;2023-04-20T15:08:58;13.80;47.70
67529;DHT22;54366;51.980;5.856;2023-04-20T15:11:25;13.90;46.50
67529;DHT22;54366;51.980;5.856;2023-04-20T15:13:57;13.90;45.80
67529;DHT22;54366;51.980;5.856;2023-04-20T15:16:30;13.90;45.50
67529;DHT22;54366;51.980;5.856;2023-04-20T15:18:56;13.80;45.80
67529;DHT22;54366;51.980;5.856;2023-04-20T15:21:29;13.80;45.70
67529;DHT22;54366;51.980;5.856;2023-04-20T15:23:56;13.70;46.10
67529;DHT22;54366;51.980;5.856;2023-04-20T15:26:29;13.70;46.50
67529;DHT22;54366;51.980;5.856;2023-04-20T15:29:02;13.60;46.80
67529;DHT22;54366;51.980;5.856;2023-04-20T15:31:35;13.70;47.30
67529;DHT22;54366;51.980;5.856;2023-04-20T15:34:08;13.70;46.90
67529;DHT22;54366;51.980;5.856;2023-04-20T15:36:42;13.80;46.90
67529;DHT22;54366;51.980;5.856;2023-04-20T15:39:15;13.80;46.80
67529;DHT22;54366;51.980;5.856;2023-04-20T15:41:50;14.00;46.90
67529;DHT22;54366;51.980;5.856;2023-04-20T15:44:23;14.10;45.90
67529;DHT22;54366;51.980;5.856;2023-04-20T15:46:56;14.00;44.10
67529;DHT22;54366;51.980;5.856;2023-04-20T15:49:29;14.00;44.60
67529;DHT22;54366;51.980;5.856;2023-04-20T15:52:11;13.90;44.70
67529;DHT22;54366;51.980;5.856;2023-04-20T15:54:38;13.90;44.80
67529;DHT22;54366;51.980;5.856;2023-04-20T15:57:11;13.90;43.90
67529;DHT22;54366;51.980;5.856;2023-04-20T15:59:44;13.90;44.90
67529;DHT22;54366;51.980;5.856;2023-04-20T16:02:10;13.90;45.10
67529;DHT22;54366;51.980;5.856;2023-04-20T16:04:43;14.00;44.90
67529;DHT22;54366;51.980;5.856;2023-04-20T16:07:16;14.00;44.60
67529;DHT22;54366;51.980;5.856;2023-04-20T16:09:49;14.10;44.40
67529;DHT22;54366;51.980;5.856;2023-04-20T16:12:22;14.00;44.20
67529;DHT22;54366;51.980;5.856;2023-04-20T16:14:55;14.10;44.30